createdAt,value
2022-11-17T00:00:32.916Z,96940.22
2022-11-17T00:02:59.614Z,96937.94
2022-11-17T00:05:26.350Z,96934.88
2022-11-17T00:07:53.132Z,96945.88
2022-11-17T00:10:19.987Z,96944.72
2022-11-17T00:13:05.517Z,96934.34
2022-11-17T00:15:32.721Z,96932.16
2022-11-17T00:18:18.025Z,96924.47
2022-11-17T00:21:03.084Z,96938.47
2022-11-17T00:23:48.307Z,96935.75
2022-11-17T00:26:17.059Z,96937.00
2022-11-17T00:28:43.892Z,96934.41
2022-11-17T00:31:33.401Z,96929.31
2022-11-17T00:34:06.636Z,96925.78
2022-11-17T00:36:44.371Z,96915.66
2022-11-17T00:39:13.188Z,96921.75
2022-11-17T00:41:40.497Z,96912.72
2022-11-17T00:44:07.985Z,96907.13
2022-11-17T00:46:35.950Z,96895.84
2022-11-17T00:49:03.048Z,96888.03
2022-11-17T00:51:30.256Z,96880.25
2022-11-17T00:53:57.166Z,96869.84
2022-11-17T00:56:25.441Z,96869.97
2022-11-17T00:58:52.920Z,96867.72
2022-11-17T01:01:20.534Z,96858.44
2022-11-17T01:03:47.727Z,96857.31
2022-11-17T01:06:19.383Z,96856.94
2022-11-17T01:08:47.002Z,96844.09
2022-11-17T01:11:16.768Z,96841.38
2022-11-17T01:13:45.649Z,96838.22
2022-11-17T01:16:15.091Z,96844.34
2022-11-17T01:18:43.212Z,96853.50
2022-11-17T01:21:15.466Z,96858.38
2022-11-17T01:23:43.716Z,96848.66
2022-11-17T01:26:13.222Z,96851.38
2022-11-17T01:28:41.255Z,96829.94
2022-11-17T01:31:20.389Z,96819.78
2022-11-17T01:33:47.944Z,96811.91
2022-11-17T01:36:17.379Z,96804.94
2022-11-17T01:38:44.675Z,96806.31
2022-11-17T01:41:23.566Z,96789.63
2022-11-17T01:43:58.901Z,96780.97
2022-11-17T01:46:32.922Z,96761.56
2022-11-17T01:49:18.241Z,96739.47
2022-11-17T01:52:02.725Z,96744.06
2022-11-17T01:54:32.534Z,96734.81
2022-11-17T01:57:05.911Z,96728.50
2022-11-17T01:59:43.492Z,96723.44
2022-11-17T02:02:10.329Z,96724.94
2022-11-17T02:04:47.513Z,96716.81
2022-11-17T02:07:24.535Z,96712.59
2022-11-17T02:09:53.740Z,96722.22
2022-11-17T02:12:23.558Z,96717.94
2022-11-17T02:14:50.915Z,96704.72
2022-11-17T02:17:18.452Z,96710.34
2022-11-17T02:19:56.068Z,96709.91
2022-11-17T02:22:53.772Z,96704.47
2022-11-17T02:26:16.719Z,96685.88
2022-11-17T02:29:06.135Z,96674.63
2022-11-17T02:32:07.484Z,96674.25
2022-11-17T02:34:54.788Z,96664.13
2022-11-17T02:37:31.566Z,96678.78
2022-11-17T02:40:16.204Z,96678.78
2022-11-17T02:43:06.215Z,96668.41
2022-11-17T02:45:39.885Z,96671.66
2022-11-17T02:48:14.048Z,96672.09
2022-11-17T02:50:44.610Z,96694.63
2022-11-17T02:53:12.551Z,96687.38
2022-11-17T02:55:40.221Z,96687.38
2022-11-17T02:58:12.132Z,96701.72
2022-11-17T03:01:01.585Z,96698.31
2022-11-17T03:03:45.601Z,96713.53
2022-11-17T03:06:35.956Z,96717.09
2022-11-17T03:09:44.692Z,96677.09
2022-11-17T03:12:38.583Z,96669.16
2022-11-17T03:15:30.388Z,96658.47
2022-11-17T03:18:29.336Z,96654.38
2022-11-17T03:21:12.523Z,96648.84
2022-11-17T03:24:07.377Z,96643.34
2022-11-17T03:26:38.611Z,96649.56
2022-11-17T03:29:09.340Z,96642.19
2022-11-17T03:31:38.482Z,96647.53
2022-11-17T03:34:09.126Z,96646.31
2022-11-17T03:36:42.002Z,96643.59
2022-11-17T03:39:16.280Z,96639.41
2022-11-17T03:41:47.093Z,96644.56
2022-11-17T03:44:17.594Z,96640.72
2022-11-17T03:46:48.386Z,96638.78
2022-11-17T03:49:27.484Z,96643.97
2022-11-17T03:51:54.523Z,96635.06
2022-11-17T03:54:21.283Z,96642.84
2022-11-17T03:56:58.479Z,96654.44
2022-11-17T03:59:36.324Z,96654.91
2022-11-17T04:02:03.212Z,96659.88
2022-11-17T04:04:49.941Z,96652.44
2022-11-17T04:07:16.664Z,96665.28
2022-11-17T04:09:43.370Z,96664.59
2022-11-17T04:12:28.764Z,96677.78
2022-11-17T04:15:14.119Z,96667.75
2022-11-17T04:17:40.898Z,96661.63
2022-11-17T04:20:08.541Z,96649.66
2022-11-17T04:22:35.403Z,96649.22
2022-11-17T04:25:02.194Z,96659.34
2022-11-17T04:27:49.207Z,96666.78
2022-11-17T04:30:15.941Z,96658.66
2022-11-17T04:32:42.703Z,96652.34
2022-11-17T04:35:09.381Z,96654.56
2022-11-17T04:37:36.101Z,96659.19
2022-11-17T04:40:03.236Z,96659.09
2022-11-17T04:42:30.050Z,96652.53
2022-11-17T04:44:56.804Z,96645.13
2022-11-17T04:47:23.523Z,96648.16
2022-11-17T04:49:50.212Z,96649.56
2022-11-17T04:52:16.928Z,96650.25
2022-11-17T04:54:43.655Z,96646.03
2022-11-17T04:57:10.381Z,96638.34
2022-11-17T04:59:37.146Z,96629.78
2022-11-17T05:02:06.185Z,96630.94
2022-11-17T05:04:51.907Z,96627.72
2022-11-17T05:07:18.789Z,96630.69
2022-11-17T05:09:45.610Z,96627.41
2022-11-17T05:12:30.942Z,96628.66
2022-11-17T05:14:57.692Z,96632.94
2022-11-17T05:17:24.399Z,96620.53
2022-11-17T05:19:51.159Z,96626.72
2022-11-17T05:22:39.861Z,96625.16
2022-11-17T05:25:07.248Z,96628.66
2022-11-17T05:27:35.928Z,96628.66
2022-11-17T05:30:07.631Z,96625.50
2022-11-17T05:32:34.389Z,96624.38
2022-11-17T05:35:01.154Z,96619.03
2022-11-17T05:37:28.104Z,96613.28
2022-11-17T05:39:54.849Z,96626.84
2022-11-17T05:42:21.776Z,96638.88
2022-11-17T05:44:48.852Z,96632.25
2022-11-17T05:47:16.088Z,96633.91
2022-11-17T05:49:42.893Z,96628.59
2022-11-17T05:52:09.692Z,96641.88
2022-11-17T05:54:36.488Z,96640.41
2022-11-17T05:57:08.365Z,96648.16
2022-11-17T05:59:46.883Z,96640.03
2022-11-17T06:02:18.742Z,96632.03
2022-11-17T06:04:46.334Z,96635.22
2022-11-17T06:07:14.228Z,96640.81
2022-11-17T06:09:42.088Z,96646.25
2022-11-17T06:12:09.067Z,96654.72
2022-11-17T06:14:37.526Z,96651.22
2022-11-17T06:17:22.175Z,96651.16
2022-11-17T06:19:54.980Z,96660.06
2022-11-17T06:22:21.873Z,96654.63
2022-11-17T06:24:48.718Z,96654.63
2022-11-17T06:27:17.086Z,96660.47
2022-11-17T06:29:45.302Z,96671.31
2022-11-17T06:32:17.316Z,96660.84
2022-11-17T06:34:53.641Z,96661.63
2022-11-17T06:37:22.299Z,96659.28
2022-11-17T06:39:49.000Z,96650.34
2022-11-17T06:42:15.727Z,96629.03
2022-11-17T06:44:42.466Z,96620.81
2022-11-17T06:47:09.276Z,96612.81
2022-11-17T06:49:36.049Z,96599.59
2022-11-17T06:52:02.840Z,96635.50
2022-11-17T06:54:29.663Z,96653.56
2022-11-17T06:56:56.894Z,96658.88
2022-11-17T06:59:23.672Z,96658.56
2022-11-17T07:01:50.407Z,96661.25
2022-11-17T07:04:17.211Z,96662.84
2022-11-17T07:06:43.978Z,96648.06
2022-11-17T07:09:12.041Z,96650.44
2022-11-17T07:11:38.794Z,96653.13
2022-11-17T07:14:05.543Z,96662.84
2022-11-17T07:16:32.593Z,96658.56
2022-11-17T07:18:59.701Z,96658.13
2022-11-17T07:21:26.583Z,96668.94
2022-11-17T07:23:53.464Z,96665.88
2022-11-17T07:26:20.300Z,96687.66
2022-11-17T07:28:47.099Z,96681.09
2022-11-17T07:31:13.856Z,96677.78
2022-11-17T07:33:40.608Z,96672.13
2022-11-17T07:36:10.347Z,96673.06
2022-11-17T07:38:39.291Z,96671.34
2022-11-17T07:41:07.965Z,96654.28
2022-11-17T07:43:34.925Z,96655.59
2022-11-17T07:46:05.678Z,96647.63
2022-11-17T07:48:33.106Z,96650.47
2022-11-17T07:51:01.117Z,96661.75
2022-11-17T07:53:28.797Z,96668.81
2022-11-17T07:55:56.028Z,96668.09
2022-11-17T07:58:25.334Z,96669.41
2022-11-17T08:00:52.262Z,96677.72
2022-11-17T08:03:19.155Z,96661.63
2022-11-17T08:05:45.927Z,96670.97
2022-11-17T08:08:13.530Z,96667.88
2022-11-17T08:10:41.169Z,96663.13
2022-11-17T08:13:08.047Z,96666.13
2022-11-17T08:15:36.199Z,96656.22
2022-11-17T08:18:03.291Z,96658.44
2022-11-17T08:20:30.354Z,96659.13
2022-11-17T08:22:57.577Z,96657.44
2022-11-17T08:25:26.270Z,96661.84
2022-11-17T08:27:55.373Z,96670.00
2022-11-17T08:30:22.565Z,96679.13
2022-11-17T08:32:53.734Z,96670.25
2022-11-17T08:35:23.116Z,96670.56
2022-11-17T08:37:50.265Z,96671.41
2022-11-17T08:40:20.488Z,96672.38
2022-11-17T08:42:57.534Z,96671.75
2022-11-17T08:45:27.264Z,96678.44
2022-11-17T08:47:56.245Z,96669.75
2022-11-17T08:50:23.077Z,96676.22
2022-11-17T08:52:53.581Z,96684.06
2022-11-17T08:55:20.372Z,96683.06
2022-11-17T08:57:47.289Z,96685.13
2022-11-17T09:00:14.648Z,96686.72
2022-11-17T09:02:41.426Z,96704.19
2022-11-17T09:05:08.747Z,96702.22
2022-11-17T09:07:35.768Z,96695.28
2022-11-17T09:10:07.686Z,96698.47
2022-11-17T09:12:34.626Z,96703.19
2022-11-17T09:15:01.398Z,96710.91
2022-11-17T09:17:31.466Z,96712.44
2022-11-17T09:19:58.288Z,96721.75
2022-11-17T09:22:25.058Z,96709.66
2022-11-17T09:24:52.031Z,96725.53
2022-11-17T09:27:18.754Z,96726.78
2022-11-17T09:29:45.557Z,96730.25
2022-11-17T09:32:13.350Z,96734.19
2022-11-17T09:34:40.123Z,96733.34
2022-11-17T09:37:06.977Z,96724.78
2022-11-17T09:39:33.738Z,96734.84
2022-11-17T09:42:01.512Z,96733.28
2022-11-17T09:44:31.297Z,96728.63
2022-11-17T09:47:30.365Z,96731.34
2022-11-17T09:50:15.993Z,96738.78
2022-11-17T09:53:01.827Z,96732.22
2022-11-17T09:55:47.367Z,96727.81
2022-11-17T09:58:41.642Z,96731.63
2022-11-17T10:01:13.834Z,96724.72
2022-11-17T10:03:45.851Z,96734.13
2022-11-17T10:06:31.886Z,96738.50
2022-11-17T10:09:25.434Z,96729.59
2022-11-17T10:11:56.825Z,96739.13
2022-11-17T10:14:23.697Z,96731.75
2022-11-17T10:16:58.242Z,96738.19
2022-11-17T10:19:33.735Z,96728.13
2022-11-17T10:22:03.703Z,96736.00
2022-11-17T10:24:50.340Z,96726.44
2022-11-17T10:27:17.080Z,96738.53
2022-11-17T10:30:07.146Z,96741.91
2022-11-17T10:32:48.205Z,96745.31
2022-11-17T10:35:18.439Z,96754.75
2022-11-17T10:37:58.265Z,96774.94
2022-11-17T10:40:32.110Z,96777.16
2022-11-17T10:43:01.846Z,96767.34
2022-11-17T10:45:32.469Z,96791.75
2022-11-17T10:48:28.966Z,96786.53
2022-11-17T10:51:01.376Z,96790.59
2022-11-17T10:53:45.140Z,96788.28
2022-11-17T10:56:21.447Z,96775.94
2022-11-17T10:59:10.034Z,96771.53
2022-11-17T11:01:42.636Z,96765.28
2022-11-17T11:04:34.363Z,96769.06
2022-11-17T11:07:19.627Z,96773.03
2022-11-17T11:10:03.053Z,96770.16
2022-11-17T11:12:39.254Z,96774.47
2022-11-17T11:15:13.848Z,96767.09
2022-11-17T11:17:43.807Z,96770.56
2022-11-17T11:20:33.859Z,96771.19
2022-11-17T11:23:06.762Z,96767.44
2022-11-17T11:25:38.987Z,96770.63
2022-11-17T11:28:47.144Z,96774.31
2022-11-17T11:31:29.180Z,96787.06
2022-11-17T11:34:23.519Z,96779.09
2022-11-17T11:37:12.717Z,96781.56
2022-11-17T11:40:15.017Z,96770.22
2022-11-17T11:42:55.616Z,96782.72
2022-11-17T11:45:42.335Z,96764.84
2022-11-17T11:48:27.083Z,96774.16
2022-11-17T11:51:05.580Z,96746.13
2022-11-17T11:53:48.278Z,96769.88
2022-11-17T11:56:21.057Z,96761.16
2022-11-17T11:58:58.813Z,96772.13
2022-11-17T12:01:28.717Z,96767.09
2022-11-17T12:04:14.690Z,96768.59
2022-11-17T12:07:02.009Z,96767.41
2022-11-17T12:09:48.716Z,96765.91
2022-11-17T12:12:18.523Z,96774.94
2022-11-17T12:15:20.947Z,96777.69
2022-11-17T12:18:03.976Z,96764.31
2022-11-17T12:20:30.822Z,96776.59
2022-11-17T12:23:20.666Z,96779.22
2022-11-17T12:25:54.192Z,96790.59
2022-11-17T12:28:41.147Z,96765.38
2022-11-17T12:31:24.154Z,96776.44
2022-11-17T12:33:54.005Z,96769.75
2022-11-17T12:36:30.484Z,96763.19
2022-11-17T12:38:59.936Z,96759.13
2022-11-17T12:41:48.788Z,96763.94
2022-11-17T12:44:37.663Z,96778.47
2022-11-17T12:47:27.258Z,96769.44
2022-11-17T12:50:00.081Z,96755.81
2022-11-17T12:52:39.096Z,96765.97
2022-11-17T12:55:15.423Z,96764.81
2022-11-17T12:57:45.597Z,96772.22
2022-11-17T13:00:21.992Z,96759.69
2022-11-17T13:03:17.766Z,96743.25
2022-11-17T13:05:44.669Z,96733.47
2022-11-17T13:08:14.414Z,96751.81
2022-11-17T13:10:41.746Z,96737.69
2022-11-17T13:13:10.425Z,96768.44
2022-11-17T13:15:37.846Z,96772.81
2022-11-17T13:18:10.619Z,96766.22
2022-11-17T13:20:38.740Z,96756.41
2022-11-17T13:23:14.126Z,96759.56
2022-11-17T13:25:40.903Z,96747.06
2022-11-17T13:28:26.413Z,96750.16
2022-11-17T13:30:53.241Z,96741.44
2022-11-17T13:33:22.796Z,96755.78
2022-11-17T13:35:51.337Z,96760.72
2022-11-17T13:38:19.746Z,96763.25
2022-11-17T13:40:48.985Z,96769.47
2022-11-17T13:43:25.273Z,96784.91
2022-11-17T13:45:54.858Z,96792.25
2022-11-17T13:48:42.318Z,96792.88
2022-11-17T13:51:29.894Z,96790.09
2022-11-17T13:53:56.632Z,96789.28
2022-11-17T13:56:38.176Z,96779.53
2022-11-17T13:59:22.013Z,96781.03
2022-11-17T14:01:58.276Z,96782.84
2022-11-17T14:04:25.283Z,96779.91
2022-11-17T14:07:02.826Z,96777.78
2022-11-17T14:09:31.952Z,96773.47
2022-11-17T14:11:59.233Z,96762.09
2022-11-17T14:14:40.316Z,96762.41
2022-11-17T14:17:20.416Z,96766.34
2022-11-17T14:19:47.914Z,96752.22
2022-11-17T14:22:22.489Z,96755.59
2022-11-17T14:24:54.460Z,96754.41
2022-11-17T14:27:27.060Z,96747.28
2022-11-17T14:29:53.849Z,96765.66
2022-11-17T14:32:21.207Z,96766.84
2022-11-17T14:34:47.994Z,96789.81
2022-11-17T14:37:14.908Z,96790.59
2022-11-17T14:39:42.794Z,96794.06
2022-11-17T14:42:11.235Z,96782.34
2022-11-17T14:44:38.057Z,96786.53
2022-11-17T14:47:04.752Z,96785.88
2022-11-17T14:49:31.475Z,96780.63
2022-11-17T14:51:59.498Z,96773.44
2022-11-17T14:54:26.906Z,96770.41
2022-11-17T14:56:53.759Z,96770.88
2022-11-17T14:59:20.468Z,96772.44
2022-11-17T15:01:47.179Z,96766.78
2022-11-17T15:04:48.442Z,96761.94
2022-11-17T15:07:03.183Z,96748.88
2022-11-17T15:09:30.125Z,96747.16
2022-11-17T15:12:04.334Z,96747.38
2022-11-17T15:14:31.175Z,96738.38
2022-11-17T15:16:58.097Z,96731.06
2022-11-17T15:19:28.512Z,96721.25
2022-11-17T15:21:55.360Z,96730.81
2022-11-17T15:24:22.154Z,96735.34
2022-11-17T15:26:48.899Z,96732.47
2022-11-17T15:29:15.990Z,96735.06
2022-11-17T15:31:43.149Z,96746.97
2022-11-17T15:34:14.341Z,96741.03
2022-11-17T15:36:46.165Z,96739.38
2022-11-17T15:39:13.987Z,96756.88
2022-11-17T15:41:42.644Z,96754.63
2022-11-17T15:44:09.727Z,96751.97
2022-11-17T15:46:36.465Z,96747.25
2022-11-17T15:49:03.485Z,96755.66
2022-11-17T15:51:30.327Z,96764.00
2022-11-17T15:54:00.332Z,96760.81
2022-11-17T15:56:29.591Z,96755.44
2022-11-17T15:59:03.311Z,96748.09
2022-11-17T16:01:35.320Z,96797.03
2022-11-17T16:04:05.126Z,96799.13
2022-11-17T16:06:33.740Z,96784.34
2022-11-17T16:09:00.825Z,96775.69
2022-11-17T16:11:28.088Z,96777.81
2022-11-17T16:13:56.093Z,96773.88
2022-11-17T16:16:24.795Z,96760.59
2022-11-17T16:18:52.813Z,96757.44
2022-11-17T16:21:19.602Z,96754.25
2022-11-17T16:23:48.676Z,96754.16
2022-11-17T16:26:16.862Z,96739.38
2022-11-17T16:28:44.108Z,96742.44
2022-11-17T16:31:15.690Z,96742.28
2022-11-17T16:33:50.290Z,96743.00
2022-11-17T16:36:18.130Z,96741.69
2022-11-17T16:38:59.959Z,96750.22
2022-11-17T16:41:36.509Z,96750.13
2022-11-17T16:44:07.539Z,96744.41
2022-11-17T16:46:34.360Z,96742.13
2022-11-17T16:49:07.292Z,96741.22
2022-11-17T16:51:34.347Z,96737.72
2022-11-17T16:54:03.973Z,96722.53
2022-11-17T16:56:31.514Z,96729.81
2022-11-17T16:58:58.915Z,96720.09
2022-11-17T17:01:28.453Z,96716.56
2022-11-17T17:03:57.132Z,96730.41
2022-11-17T17:06:24.420Z,96719.56
2022-11-17T17:08:59.882Z,96729.38
2022-11-17T17:11:28.985Z,96734.31
2022-11-17T17:13:58.968Z,96729.59
2022-11-17T17:16:26.257Z,96736.91
2022-11-17T17:18:59.645Z,96748.63
2022-11-17T17:21:28.004Z,96746.34
2022-11-17T17:23:55.413Z,96740.94
2022-11-17T17:26:25.533Z,96752.91
2022-11-17T17:28:55.183Z,96762.28
2022-11-17T17:31:23.393Z,96764.28
2022-11-17T17:33:51.536Z,96765.16
2022-11-17T17:36:23.718Z,96764.47
2022-11-17T17:38:55.761Z,96775.38
2022-11-17T17:41:25.443Z,96779.16
2022-11-17T17:43:58.293Z,96786.06
2022-11-17T17:46:26.371Z,96793.50
2022-11-17T17:48:53.604Z,96791.59
2022-11-17T17:51:23.994Z,96788.34
2022-11-17T17:53:52.025Z,96793.75
2022-11-17T17:56:20.634Z,96789.03
2022-11-17T17:58:50.627Z,96795.72
2022-11-17T18:01:20.392Z,96802.72
2022-11-17T18:03:48.735Z,96794.56
2022-11-17T18:06:18.825Z,96784.84
2022-11-17T18:08:45.736Z,96778.13
2022-11-17T18:11:16.935Z,96778.81
2022-11-17T18:13:45.471Z,96783.44
2022-11-17T18:16:17.332Z,96790.53
2022-11-17T18:18:45.652Z,96795.78
2022-11-17T18:21:18.663Z,96781.50
2022-11-17T18:23:46.157Z,96802.44
2022-11-17T18:26:32.412Z,96800.88
2022-11-17T18:29:00.576Z,96819.41
2022-11-17T18:31:29.997Z,96821.69
2022-11-17T18:33:59.232Z,96820.88
2022-11-17T18:36:27.053Z,96829.72
2022-11-17T18:38:54.406Z,96823.97
2022-11-17T18:41:25.746Z,96832.53
2022-11-17T18:43:52.709Z,96833.03
2022-11-17T18:46:22.202Z,96846.19
2022-11-17T18:48:51.794Z,96851.16
2022-11-17T18:51:21.455Z,96849.06
2022-11-17T18:53:53.914Z,96842.41
2022-11-17T18:56:23.476Z,96858.59
2022-11-17T18:58:50.930Z,96866.38
2022-11-17T19:01:28.372Z,96886.69
2022-11-17T19:03:58.745Z,96889.94
2022-11-17T19:06:26.072Z,96894.56
2022-11-17T19:08:53.739Z,96918.88
2022-11-17T19:11:22.467Z,96918.72
2022-11-17T19:13:52.586Z,96935.56
2022-11-17T19:16:24.983Z,96908.88
2022-11-17T19:18:55.987Z,96874.25
2022-11-17T19:21:26.246Z,96861.28
2022-11-17T19:23:55.037Z,96826.28
2022-11-17T19:26:25.158Z,96844.72
2022-11-17T19:28:56.149Z,96853.28
2022-11-17T19:31:23.387Z,96852.16
2022-11-17T19:33:50.779Z,96848.63
2022-11-17T19:36:33.469Z,96852.69
2022-11-17T19:39:01.889Z,96842.91
2022-11-17T19:41:36.729Z,96836.06
2022-11-17T19:44:05.535Z,96835.97
2022-11-17T19:46:33.283Z,96844.34
2022-11-17T19:49:00.113Z,96848.19
2022-11-17T19:51:32.069Z,96857.44
2022-11-17T19:54:02.116Z,96841.19
2022-11-17T19:56:30.890Z,96851.03
2022-11-17T19:58:57.912Z,96847.09
2022-11-17T20:01:29.881Z,96854.91
2022-11-17T20:03:58.913Z,96857.59
2022-11-17T20:06:28.799Z,96854.53
2022-11-17T20:08:57.438Z,96861.31
2022-11-17T20:11:28.664Z,96860.97
2022-11-17T20:13:56.186Z,96861.53
2022-11-17T20:16:25.650Z,96867.31
2022-11-17T20:18:54.996Z,96869.31
2022-11-17T20:21:22.676Z,96876.31
2022-11-17T20:23:50.612Z,96873.16
2022-11-17T20:26:25.872Z,96868.53
2022-11-17T20:28:53.001Z,96872.28
2022-11-17T20:31:25.123Z,96871.25
2022-11-17T20:33:56.547Z,96868.00
2022-11-17T20:36:24.011Z,96875.78
2022-11-17T20:38:52.887Z,96879.16
2022-11-17T20:41:21.100Z,96880.41
2022-11-17T20:43:49.394Z,96881.09
2022-11-17T20:46:16.874Z,96895.63
2022-11-17T20:48:44.374Z,96886.63
2022-11-17T20:51:13.766Z,96892.41
2022-11-17T20:53:41.123Z,96904.22
2022-11-17T20:56:10.312Z,96899.72
2022-11-17T20:58:37.639Z,96907.50
2022-11-17T21:01:14.941Z,96904.13
2022-11-17T21:03:42.620Z,96903.22
2022-11-17T21:06:10.087Z,96900.97
2022-11-17T21:08:39.127Z,96894.41
2022-11-17T21:11:08.689Z,96897.34
2022-11-17T21:13:36.573Z,96899.81
2022-11-17T21:16:15.296Z,96900.59
2022-11-17T21:18:51.862Z,96905.91
2022-11-17T21:21:18.940Z,96897.44
2022-11-17T21:23:47.805Z,96903.41
2022-11-17T21:26:18.981Z,96893.38
2022-11-17T21:28:46.930Z,96901.03
2022-11-17T21:31:16.041Z,96904.78
2022-11-17T21:33:44.126Z,96907.72
2022-11-17T21:36:15.935Z,96911.19
2022-11-17T21:38:43.790Z,96904.88
2022-11-17T21:41:12.803Z,96905.13
2022-11-17T21:43:42.112Z,96911.09
2022-11-17T21:46:12.372Z,96925.88
2022-11-17T21:48:39.526Z,96917.50
2022-11-17T21:51:12.959Z,96916.06
2022-11-17T21:53:39.789Z,96918.41
2022-11-17T21:56:07.590Z,96928.69
2022-11-17T21:58:34.774Z,96925.63
2022-11-17T22:01:12.907Z,96923.16
2022-11-17T22:03:41.119Z,96929.38
2022-11-17T22:06:18.018Z,96928.47
2022-11-17T22:08:46.426Z,96925.19
2022-11-17T22:11:16.005Z,96919.09
2022-11-17T22:13:42.880Z,96927.66
2022-11-17T22:16:14.157Z,96923.50
2022-11-17T22:18:41.645Z,96928.94
2022-11-17T22:21:09.151Z,96933.00
2022-11-17T22:23:35.965Z,96930.16
2022-11-17T22:26:04.513Z,96925.31
2022-11-17T22:28:31.494Z,96926.00
2022-11-17T22:30:58.487Z,96928.34
2022-11-17T22:33:25.354Z,96933.22
2022-11-17T22:35:52.306Z,96928.13
2022-11-17T22:38:19.397Z,96928.13
2022-11-17T22:40:46.355Z,96919.56
2022-11-17T22:43:15.574Z,96924.19
2022-11-17T22:45:42.787Z,96928.03
2022-11-17T22:48:12.545Z,96929.84
2022-11-17T22:50:39.359Z,96932.19
2022-11-17T22:53:06.418Z,96937.72
2022-11-17T22:55:34.051Z,96937.28
2022-11-17T22:58:00.933Z,96931.06
2022-11-17T23:00:27.994Z,96926.00
2022-11-17T23:02:54.939Z,96927.00
2022-11-17T23:05:21.854Z,96919.00
2022-11-17T23:07:48.679Z,96922.16
2022-11-17T23:10:15.862Z,96929.16
2022-11-17T23:12:42.723Z,96925.19
2022-11-17T23:15:10.160Z,96931.50
2022-11-17T23:18:28.340Z,96930.16
2022-11-17T23:20:55.063Z,96930.28
2022-11-17T23:23:21.929Z,96936.81
2022-11-17T23:25:48.920Z,96926.00
2022-11-17T23:28:15.938Z,96929.84
2022-11-17T23:30:42.721Z,96937.28
2022-11-17T23:33:09.614Z,96933.00
2022-11-17T23:35:36.471Z,96937.28
2022-11-17T23:38:03.240Z,96937.38
2022-11-17T23:40:33.088Z,96937.38
2022-11-17T23:43:00.056Z,96929.16
2022-11-17T23:45:26.982Z,96935.94
2022-11-17T23:47:54.284Z,96932.19
2022-11-17T23:50:21.082Z,96924.66
2022-11-17T23:52:47.918Z,96922.50
2022-11-17T23:55:14.809Z,96925.53
2022-11-17T23:57:41.779Z,96920.81
